createdAt,value
2023-01-20T00:04:43.112Z,15
2023-01-20T00:34:53.517Z,14.9
2023-01-20T01:04:53.923Z,14.8
2023-01-20T01:35:04.754Z,14.8
2023-01-20T02:05:05.211Z,14.7
2023-01-20T02:35:15.985Z,14.7
2023-01-20T03:05:26.920Z,14.6
2023-01-20T03:35:37.721Z,14.6
2023-01-20T04:05:38.107Z,14.6
2023-01-20T04:35:39.014Z,14.6
2023-01-20T05:05:39.492Z,14.6
2023-01-20T05:35:39.920Z,14.6
2023-01-20T06:05:40.366Z,14.5
2023-01-20T06:35:40.799Z,14.4
2023-01-20T07:05:41.229Z,12.9
2023-01-20T07:35:41.680Z,14.5
2023-01-20T08:05:52.398Z,15.5
2023-01-20T08:35:52.834Z,15.5
2023-01-20T09:06:04.566Z,15.8
2023-01-20T09:36:05.066Z,15.9
2023-01-20T10:06:18.487Z,16
2023-01-20T10:36:18.918Z,16
2023-01-20T11:06:19.500Z,16.1
2023-01-20T11:36:20.434Z,16.2
2023-01-20T12:06:20.854Z,16.2
2023-01-20T12:36:21.965Z,16.3
2023-01-20T13:06:22.479Z,16.3
2023-01-20T13:36:22.963Z,16.3
2023-01-20T14:06:23.413Z,16.3
2023-01-20T14:36:23.838Z,16.3
2023-01-20T15:06:24.331Z,16.3
2023-01-20T15:36:35.134Z,16.3
2023-01-20T16:06:35.607Z,16.3
2023-01-20T17:06:55.209Z,16.3
2023-01-20T17:36:55.931Z,16.5
2023-01-20T18:06:56.407Z,16.4
2023-01-20T18:36:57.193Z,16.5
2023-01-20T19:37:03.125Z,16.5
2023-01-20T20:07:03.531Z,16.4
2023-01-20T20:37:03.950Z,16.5
2023-01-20T21:07:10.220Z,16.4
2023-01-20T21:37:10.656Z,16.5
2023-01-20T22:07:21.519Z,16.4
2023-01-20T22:37:21.985Z,15.9
2023-01-20T23:07:32.472Z,16.1
2023-01-20T23:37:32.955Z,16
